Pere C — WDF8995 — position and weather

sailwx.info

Track history (hours):
 
Tides and Currents Weather Stations Pressure Air Temp Water Temp Dewpoint Dewpoint Depression Visibility Wind Speed Wind Dir Waves Ship Positions

Pere C

Owner: CVITANOVIC BOAT SERVICE, INC, BELLE CHASSE, LA. More information available from US FCC via Universal Licensing System and Coast Guard Vessel Documentation Center.

Last reported at 2018-Feb-19 07:31 UTC. Time now 2018-Feb-19 07:52 UTC.
Position N 29°34' W 090°42'.

Length 22 m; draft 2 m.

Type: Towing. MMSI: 367500720.

Date/timePositionNaut miles runAvg speedWind from/ knotsBaromVisibWave heightAir tempDewpointWater temp
2018-Feb-19 07:31N 29°34' W 090°42'0 0.0
2018-Feb-19 07:01N 29°34' W 090°42'3 5.4
2018-Feb-19 06:30N 29°31' W 090°43'4 7.5
2018-Feb-19 06:00N 29°27' W 090°43'  
2018-Feb-15 10:37N 29°33' W 090°54'0 0.0
2018-Feb-15 10:30N 29°33' W 090°54'0 0.0
2018-Feb-15 10:00N 29°33' W 090°54'0 0.0
2018-Feb-15 09:22N 29°33' W 090°54'0 0.0
2018-Feb-15 09:00N 29°33' W 090°54'3 3.9
2018-Feb-15 08:19N 29°32' W 090°51'2 7.0
2018-Feb-15 08:00N 29°32' W 090°48'3 6.1
2018-Feb-15 07:30N 29°33' W 090°45'3 5.2
2018-Feb-15 07:00N 29°35' W 090°43'2 4.1
2018-Feb-15 06:31N 29°37' W 090°42'3 5.9
2018-Feb-15 06:00N 29°35' W 090°38'3 5.7
2018-Feb-15 05:31N 29°35' W 090°35'3 6.4
2018-Feb-15 05:00N 29°34' W 090°32'5 6.8
2018-Feb-15 04:16N 29°33' W 090°26'  
Track history (hours):
 
Tides and Currents Weather Stations Pressure Air Temp Water Temp Dewpoint Dewpoint Depression Visibility Wind Speed Wind Dir Waves Ship Positions

Pere C

Owner: CVITANOVIC BOAT SERVICE, INC, BELLE CHASSE, LA. More information available from US FCC via Universal Licensing System and Coast Guard Vessel Documentation Center.

Last reported at 2018-Feb-19 07:31 UTC. Time now 2018-Feb-19 07:52 UTC.
Position N 29°34' W 090°42'.

Length 22 m; draft 2 m.

Type: Towing. MMSI: 367500720.

Date/timePositionNaut miles runAvg speedWind from/ knotsBaromVisibWave heightAir tempDewpointWater temp
2018-Feb-19 07:31N 29°34' W 090°42'0 0.0
2018-Feb-19 07:01N 29°34' W 090°42'3 5.4
2018-Feb-19 06:30N 29°31' W 090°43'4 7.5
2018-Feb-19 06:00N 29°27' W 090°43'  
2018-Feb-15 10:37N 29°33' W 090°54'0 0.0
2018-Feb-15 10:30N 29°33' W 090°54'0 0.0
2018-Feb-15 10:00N 29°33' W 090°54'0 0.0
2018-Feb-15 09:22N 29°33' W 090°54'0 0.0
2018-Feb-15 09:00N 29°33' W 090°54'3 3.9
2018-Feb-15 08:19N 29°32' W 090°51'2 7.0
2018-Feb-15 08:00N 29°32' W 090°48'3 6.1
2018-Feb-15 07:30N 29°33' W 090°45'3 5.2
2018-Feb-15 07:00N 29°35' W 090°43'2 4.1
2018-Feb-15 06:31N 29°37' W 090°42'3 5.9
2018-Feb-15 06:00N 29°35' W 090°38'3 5.7
2018-Feb-15 05:31N 29°35' W 090°35'3 6.4
2018-Feb-15 05:00N 29°34' W 090°32'5 6.8
2018-Feb-15 04:16N 29°33' W 090°26'  

Dump ship's entire track history